Time;durP1;ratioP1;P1;durP2;ratioP2;P2;SDS_P1;SDS_P2;PMS_P1;PMS_P2;Temp;Humidity;BMP_temperature;BMP_pressure;BME280_temperature;BME280_humidity;BME280_pressure;Samples;Min_cycle;Max_cycle;Signal;HPM_P1;HPM_P2
2023/08/29 00:00:24;;;;;;;7.10;4.60;;;;;;;19.53;84.49;99773.67;105171;1263;101370;-77
2023/08/29 00:03:28;;;;;;;6.70;4.60;;;;;;;19.48;84.90;99759.21;105550;1259;100395;-77
2023/08/29 00:06:14;;;;;;;4.90;4.40;;;;;;;19.43;85.42;99741.59;105092;1261;99144;-77
2023/08/29 00:08:59;;;;;;;7.20;4.50;;;;;;;19.39;85.61;99735.65;105093;1264;97989;-77
2023/08/29 00:11:45;;;;;;;5.20;4.10;;;;;;;19.35;85.82;99744.21;105300;1261;98586;-78
2023/08/29 00:14:30;;;;;;;8.00;4.80;;;;;;;19.33;86.21;99752.27;105285;1261;101392;-78
2023/08/29 00:17:16;;;;;;;8.00;3.80;;;;;;;19.31;86.18;99760.61;105073;1264;100538;-78
2023/08/29 00:20:02;;;;;;;8.20;4.90;;;;;;;19.32;86.20;99771.91;105382;1258;98857;-78
2023/08/29 00:22:48;;;;;;;7.10;4.50;;;;;;;19.32;86.34;99770.57;105244;1258;97881;-78
2023/08/29 00:25:34;;;;;;;4.20;3.80;;;;;;;19.33;86.40;99754.92;105246;1257;97869;-77
2023/08/29 00:28:19;;;;;;;5.20;3.70;;;;;;;19.32;86.56;99739.93;105207;1264;101447;-77
2023/08/29 00:31:06;;;;;;;5.30;3.50;;;;;;;19.32;86.53;99731.55;105172;1257;99181;-77
2023/08/29 00:33:53;;;;;;;4.90;3.80;;;;;;;19.32;86.28;99729.50;105221;1263;99010;-77
2023/08/29 00:36:38;;;;;;;5.70;3.70;;;;;;;19.32;86.16;99711.37;105224;1258;98648;-77
2023/08/29 00:39:24;;;;;;;5.00;4.00;;;;;;;19.33;86.10;99702.30;105326;1263;98501;-78
2023/08/29 00:42:10;;;;;;;6.40;3.90;;;;;;;19.30;86.33;99700.34;105335;1257;101376;-77
2023/08/29 00:44:55;;;;;;;6.00;4.10;;;;;;;19.29;86.47;99685.81;105161;1261;99132;-78
2023/08/29 00:47:41;;;;;;;7.20;4.20;;;;;;;19.27;86.64;99667.52;105253;1264;98347;-77
2023/08/29 00:50:28;;;;;;;5.10;3.50;;;;;;;19.26;86.51;99661.05;105256;1263;98023;-78
2023/08/29 00:53:14;;;;;;;4.50;3.80;;;;;;;19.24;86.52;99653.34;105379;1261;98511;-77
2023/08/29 00:56:01;;;;;;;5.10;4.10;;;;;;;19.25;86.81;99646.39;105132;1260;102778;-77
2023/08/29 00:58:46;;;;;;;7.80;4.20;;;;;;;19.25;86.95;99649.31;105063;1258;99106;-77
2023/08/29 01:01:34;;;;;;;6.40;4.20;;;;;;;19.24;86.97;99653.77;105183;1258;99117;-77
2023/08/29 01:04:20;;;;;;;7.60;4.10;;;;;;;19.23;86.96;99667.08;105430;1258;98030;-78
2023/08/29 01:07:05;;;;;;;4.50;3.70;;;;;;;19.25;87.10;99685.48;105604;1258;98595;-79
2023/08/29 01:09:51;;;;;;;4.80;3.50;;;;;;;19.28;87.29;99716.55;105671;1258;102595;-79
2023/08/29 01:12:45;;;;;;;8.50;3.80;;;;;;;19.31;87.38;99730.58;105158;1277;99865;-78
2023/08/29 01:15:33;;;;;;;6.40;4.30;;;;;;;19.34;87.71;99722.91;105316;1258;99079;-77
2023/08/29 01:18:20;;;;;;;7.90;4.60;;;;;;;19.32;88.32;99710.61;105189;1258;97967;-77
2023/08/29 01:21:35;;;;;;;10.10;4.70;;;;;;;19.26;89.09;99691.67;105382;1257;96674;-78
2023/08/29 01:24:30;;;;;;;6.40;4.70;;;;;;;19.12;89.30;99683.36;108161;1261;101323;-78
2023/08/29 01:27:17;;;;;;;9.50;4.70;;;;;;;19.00;89.86;99672.71;107130;1263;99092;-79
2023/08/29 01:30:03;;;;;;;9.90;4.60;;;;;;;18.93;90.42;99663.67;105224;1258;98440;-78
2023/08/29 01:32:50;;;;;;;8.50;4.70;;;;;;;18.89;90.97;99655.17;105157;1261;97946;-78
2023/08/29 01:35:47;;;;;;;6.10;4.30;;;;;;;18.85;91.01;99652.88;105209;1276;98441;-77
2023/08/29 01:38:32;;;;;;;7.40;4.10;;;;;;;18.81;91.29;99652.48;105320;1261;102711;-77
2023/08/29 01:41:18;;;;;;;4.50;3.40;;;;;;;18.78;91.57;99642.20;105274;1262;100307;-78
2023/08/29 01:44:05;;;;;;;8.60;4.10;;;;;;;18.76;91.70;99634.60;105267;1264;99024;-78
2023/08/29 01:46:52;;;;;;;6.80;3.80;;;;;;;18.74;91.84;99624.71;105246;1264;97982;-77
2023/08/29 01:49:39;;;;;;;5.20;3.90;;;;;;;18.74;92.07;99613.15;105337;1257;97828;-78
2023/08/29 01:52:25;;;;;;;5.60;3.80;;;;;;;18.75;92.02;99606.76;105324;1258;101552;-77
2023/08/29 01:55:10;;;;;;;5.30;4.40;;;;;;;18.77;91.95;99594.23;105254;1258;99557;-77
2023/08/29 01:57:58;;;;;;;5.90;3.80;;;;;;;18.78;92.04;99584.30;105968;1259;97892;-79
2023/08/29 02:00:44;;;;;;;5.80;3.50;;;;;;;18.79;91.97;99572.73;105399;1258;98080;-77
2023/08/29 02:03:31;;;;;;;5.30;4.00;;;;;;;18.81;92.02;99557.14;105408;1260;98369;-77
2023/08/29 02:06:16;;;;;;;7.80;3.70;;;;;;;18.83;92.11;99550.59;105370;1261;101346;-78
2023/08/29 02:09:01;;;;;;;6.00;3.50;;;;;;;18.85;92.03;99545.42;105292;1261;99097;-78
2023/08/29 02:11:47;;;;;;;4.40;3.60;;;;;;;18.87;91.91;99543.38;105242;1264;98423;-77
2023/08/29 02:14:32;;;;;;;5.10;3.60;;;;;;;18.91;91.98;99536.60;105367;1258;97947;-78
2023/08/29 02:17:18;;;;;;;3.80;3.40;;;;;;;18.94;91.62;99534.98;105574;1260;98046;-78
2023/08/29 02:20:07;;;;;;;4.00;3.40;;;;;;;18.96;91.81;99530.97;105297;1261;102200;-77
2023/08/29 02:22:52;;;;;;;5.30;3.50;;;;;;;18.99;91.74;99523.61;105405;1261;99824;-78
2023/08/29 02:25:38;;;;;;;4.30;3.20;;;;;;;19.02;91.56;99519.48;105394;1262;98394;-78
2023/08/29 02:28:23;;;;;;;3.70;3.40;;;;;;;19.04;91.71;99510.91;105378;1261;97901;-78
2023/08/29 02:31:10;;;;;;;5.60;3.90;;;;;;;19.06;91.65;99512.70;105298;1258;99782;-77
2023/08/29 02:33:56;;;;;;;9.20;3.80;;;;;;;19.09;91.64;99513.36;105321;1261;101362;-78
2023/08/29 02:36:41;;;;;;;7.20;3.50;;;;;;;19.11;91.60;99516.84;105600;1261;99053;-77
2023/08/29 02:39:26;;;;;;;4.00;3.50;;;;;;;19.14;91.95;99516.41;105296;1261;99015;-80
2023/08/29 02:42:12;;;;;;;4.20;3.30;;;;;;;19.17;92.07;99523.96;105209;1264;98074;-78
2023/08/29 02:44:58;;;;;;;5.10;3.40;;;;;;;19.21;92.10;99530.45;105206;1258;97979;-78
2023/08/29 02:47:44;;;;;;;7.00;3.70;;;;;;;19.25;92.27;99533.37;105237;1263;112203;-78
2023/08/29 02:50:29;;;;;;;5.20;3.40;;;;;;;19.28;91.94;99544.70;105318;1264;99276;-78
2023/08/29 02:53:16;;;;;;;6.80;4.50;;;;;;;19.31;91.65;99567.66;105305;1258;99232;-79
2023/08/29 02:56:02;;;;;;;11.20;4.40;;;;;;;19.31;91.96;99605.51;105628;1261;97985;-78
2023/08/29 02:58:47;;;;;;;5.70;4.50;;;;;;;19.23;92.75;99610.59;105681;1258;97982;-78
2023/08/29 03:01:33;;;;;;;6.10;4.30;;;;;;;19.08;93.14;99601.48;105762;1258;101326;-79
2023/08/29 03:04:19;;;;;;;5.60;5.00;;;;;;;18.91;93.69;99574.48;106226;1259;100279;-78
2023/08/29 03:07:05;;;;;;;7.70;5.10;;;;;;;18.74;94.17;99554.17;105388;1258;98489;-78
2023/08/29 03:09:51;;;;;;;8.00;4.80;;;;;;;18.60;94.92;99559.64;105207;1263;97928;-78
2023/08/29 03:12:37;;;;;;;6.90;5.20;;;;;;;18.53;95.42;99560.52;105266;1258;97893;-78
2023/08/29 03:15:23;;;;;;;8.80;5.70;;;;;;;18.45;96.00;99564.31;105159;1258;103110;-78
2023/08/29 03:18:09;;;;;;;7.30;5.80;;;;;;;18.40;96.38;99564.72;105327;1258;100322;-78
2023/08/29 03:21:04;;;;;;;6.40;5.40;;;;;;;18.39;96.75;99576.91;105144;1263;99167;-77
2023/08/29 03:23:49;;;;;;;9.60;5.70;;;;;;;18.37;97.21;99618.70;105193;1258;97901;-78
2023/08/29 03:26:36;;;;;;;6.90;5.90;;;;;;;18.36;97.48;99689.61;105174;1257;98499;-78
2023/08/29 03:29:22;;;;;;;12.20;7.20;;;;;;;18.36;98.01;99671.13;105168;1260;101343;-77
2023/08/29 03:32:08;;;;;;;12.20;7.10;;;;;;;18.30;98.32;99640.39;105354;1261;99785;-79
2023/08/29 03:34:55;;;;;;;13.10;7.20;;;;;;;18.23;98.90;99648.31;105396;1258;99105;-78
2023/08/29 03:37:40;;;;;;;8.00;7.20;;;;;;;18.16;99.29;99639.20;105458;1258;98000;-79
2023/08/29 03:40:25;;;;;;;12.00;7.60;;;;;;;18.09;99.62;99620.55;105408;1258;98494;-79
2023/08/29 03:43:13;;;;;;;7.50;6.80;;;;;;;17.98;99.92;99619.80;105527;1258;102099;-79
2023/08/29 03:46:07;;;;;;;12.30;7.00;;;;;;;17.90;100.00;99620.94;105304;1264;99095;-78
2023/08/29 03:48:52;;;;;;;10.90;7.90;;;;;;;17.83;100.00;99602.41;104964;1263;97959;-77
2023/08/29 03:51:38;;;;;;;8.90;6.60;;;;;;;17.74;100.00;99591.86;104943;1262;97935;-77
2023/08/29 03:54:24;;;;;;;8.20;7.00;;;;;;;17.66;100.00;99599.75;105014;1263;97953;-76
2023/08/29 03:57:09;;;;;;;10.20;7.50;;;;;;;17.60;100.00;99592.02;105050;1258;102631;-79
2023/08/29 03:59:55;;;;;;;8.50;7.30;;;;;;;17.60;100.00;99592.77;105402;1258;100201;-77
2023/08/29 04:02:40;;;;;;;10.40;8.30;;;;;;;17.61;100.00;99593.85;105152;1260;99038;-77
2023/08/29 04:05:27;;;;;;;10.20;7.70;;;;;;;17.58;100.00;99611.42;105195;1263;98113;-78
2023/08/29 04:08:13;;;;;;;11.70;7.90;;;;;;;17.59;100.00;99623.36;105251;1258;97971;-77
2023/08/29 04:11:03;;;;;;;9.70;8.50;;;;;;;17.61;100.00;99628.58;105226;1263;103987;-77
2023/08/29 04:13:49;;;;;;;10.40;7.70;;;;;;;17.60;100.00;99641.30;105297;1258;100177;-77
2023/08/29 04:16:34;;;;;;;11.30;8.40;;;;;;;17.61;100.00;99647.53;105218;1263;99440;-77
2023/08/29 04:19:20;;;;;;;10.60;7.80;;;;;;;17.62;100.00;99646.56;105144;1258;98957;-77
2023/08/29 04:22:06;;;;;;;13.60;8.80;;;;;;;17.62;100.00;99651.92;105244;1258;98471;-77
2023/08/29 04:24:52;;;;;;;11.60;8.10;;;;;;;17.60;100.00;99647.39;105249;1264;102367;-78
2023/08/29 04:27:38;;;;;;;9.90;8.50;;;;;;;17.57;100.00;99641.80;105259;1263;99091;-78
2023/08/29 04:30:23;;;;;;;12.10;8.40;;;;;;;17.57;100.00;99632.05;105110;1258;98032;-77
2023/08/29 04:33:09;;;;;;;11.70;8.90;;;;;;;17.57;100.00;99621.94;105184;1258;98386;-78
2023/08/29 04:35:54;;;;;;;12.50;8.60;;;;;;;17.58;100.00;99611.29;105329;1261;97867;-78
2023/08/29 04:38:42;;;;;;;10.60;8.20;;;;;;;17.62;100.00;99615.11;105199;1258;102089;-78
2023/08/29 04:41:28;;;;;;;10.00;7.40;;;;;;;17.65;100.00;99620.21;105358;1258;100382;-78
2023/08/29 04:44:15;;;;;;;9.30;7.60;;;;;;;17.63;100.00;99625.34;105386;1258;98992;-78
2023/08/29 04:47:00;;;;;;;10.10;7.20;;;;;;;17.60;100.00;99621.64;105311;1262;98011;-78
2023/08/29 04:49:46;;;;;;;8.60;7.50;;;;;;;17.58;100.00;99612.23;105257;1261;98468;-83
2023/08/29 04:52:32;;;;;;;9.80;7.60;;;;;;;17.56;100.00;99598.37;106124;1258;101348;-81
2023/08/29 04:55:18;;;;;;;11.00;7.20;;;;;;;17.56;100.00;99591.16;106159;1258;100446;-84
2023/08/29 04:58:03;;;;;;;8.00;7.00;;;;;;;17.58;100.00;99586.74;106065;1258;98364;-79
2023/08/29 05:00:50;;;;;;;7.90;6.90;;;;;;;17.61;100.00;99582.38;106258;1258;98647;-80
2023/08/29 05:03:37;;;;;;;11.10;6.90;;;;;;;17.62;100.00;99584.92;106492;1261;98633;-80
2023/08/29 05:06:24;;;;;;;8.20;6.10;;;;;;;17.65;100.00;99593.29;106317;1258;101386;-79
2023/08/29 05:09:11;;;;;;;8.70;6.60;;;;;;;17.69;100.00;99594.86;106485;1257;100841;-80
2023/08/29 05:11:57;;;;;;;9.40;6.60;;;;;;;17.73;100.00;99594.45;105954;1259;98977;-81
2023/08/29 05:14:43;;;;;;;10.30;6.50;;;;;;;17.74;100.00;99588.77;106125;1257;98989;-80
2023/08/29 05:17:29;;;;;;;7.20;6.30;;;;;;;17.75;100.00;99577.56;106546;1258;97927;-80
2023/08/29 05:20:14;;;;;;;7.10;5.40;;;;;;;17.77;100.00;99568.16;106622;1258;101381;-80
2023/08/29 05:23:00;;;;;;;7.00;6.20;;;;;;;17.78;100.00;99560.79;106515;1259;99182;-79
2023/08/29 05:25:45;;;;;;;7.80;6.40;;;;;;;17.79;100.00;99560.80;106307;1258;98881;-82
2023/08/29 05:28:31;;;;;;;8.00;6.50;;;;;;;17.81;100.00;99555.69;106133;1258;97767;-82
2023/08/29 05:31:17;;;;;;;7.20;6.00;;;;;;;17.84;100.00;99554.99;106303;1257;98528;-81
2023/08/29 05:34:03;;;;;;;12.20;6.00;;;;;;;17.87;100.00;99550.95;106277;1261;101423;-80
2023/08/29 05:36:49;;;;;;;7.60;5.70;;;;;;;17.87;100.00;99539.48;105994;1258;100054;-80
2023/08/29 05:39:34;;;;;;;6.70;5.90;;;;;;;17.89;100.00;99531.80;106514;1258;98984;-80
2023/08/29 05:42:20;;;;;;;8.10;6.20;;;;;;;17.90;100.00;99522.76;106551;1258;98068;-81
2023/08/29 05:45:06;;;;;;;8.40;5.90;;;;;;;17.92;100.00;99517.07;106495;1261;97868;-80
2023/08/29 05:47:52;;;;;;;5.90;4.80;;;;;;;17.97;100.00;99513.75;106456;1259;102730;-81
2023/08/29 05:50:41;;;;;;;6.30;5.20;;;;;;;17.98;100.00;99501.35;106440;1263;99165;-81
2023/08/29 05:53:26;;;;;;;7.80;5.40;;;;;;;18.01;100.00;99497.30;106514;1262;97893;-82
2023/08/29 05:56:12;;;;;;;10.80;5.50;;;;;;;18.05;100.00;99501.23;106380;1259;97862;-80
2023/08/29 05:58:57;;;;;;;8.00;6.10;;;;;;;18.07;100.00;99507.32;106552;1258;97971;-81
2023/08/29 06:01:43;;;;;;;7.20;5.50;;;;;;;18.10;100.00;99504.73;106461;1258;101380;-83
2023/08/29 06:04:28;;;;;;;7.60;5.40;;;;;;;18.14;100.00;99503.56;106438;1258;99256;-81
2023/08/29 06:07:14;;;;;;;6.00;5.20;;;;;;;18.18;100.00;99501.74;106491;1261;97943;-87
2023/08/29 06:10:03;;;;;;;6.10;5.50;;;;;;;18.23;100.00;99495.76;106202;1266;98048;-84
2023/08/29 06:12:49;;;;;;;8.60;5.40;;;;;;;18.29;100.00;99498.88;106154;1263;97841;-86
2023/08/29 06:15:58;;;;;;;10.50;5.60;;;;;;;18.35;100.00;99499.02;106378;1257;102615;-84
2023/08/29 06:18:44;;;;;;;7.10;5.50;;;;;;;18.42;100.00;99495.70;106277;1262;100785;-86
2023/08/29 06:21:30;;;;;;;9.00;5.00;;;;;;;18.52;100.00;99495.05;106406;1258;97968;-84
2023/08/29 06:24:16;;;;;;;5.70;4.90;;;;;;;18.60;100.00;99498.98;106113;1264;98018;-85
2023/08/29 06:27:02;;;;;;;5.90;5.20;;;;;;;18.67;100.00;99501.67;106322;1258;97842;-84
2023/08/29 06:29:48;;;;;;;6.90;4.70;;;;;;;18.73;100.00;99496.66;106353;1257;101419;-85
2023/08/29 06:32:35;;;;;;;7.30;5.00;;;;;;;18.78;100.00;99493.48;106205;1264;100490;-85
2023/08/29 06:35:20;;;;;;;7.20;4.70;;;;;;;18.80;100.00;99482.56;106325;1263;98430;-86
2023/08/29 06:38:07;;;;;;;8.00;4.40;;;;;;;18.85;100.00;99479.81;106309;1259;97925;-88
2023/08/29 06:40:56;;;;;;;11.20;4.80;;;;;;;18.91;100.00;99479.66;106229;1264;98076;-85
2023/08/29 06:43:43;;;;;;;8.20;4.60;;;;;;;18.95;100.00;99463.23;106278;1259;102099;-85
2023/08/29 06:46:29;;;;;;;7.00;4.60;;;;;;;19.01;100.00;99463.66;106257;1261;99190;-85
2023/08/29 06:49:15;;;;;;;7.10;4.30;;;;;;;19.07;100.00;99468.78;106342;1261;99129;-84
2023/08/29 06:52:01;;;;;;;7.90;4.00;;;;;;;19.13;100.00;99463.85;106354;1258;97205;-86
2023/08/29 06:54:47;;;;;;;7.40;4.10;;;;;;;19.20;100.00;99464.57;106219;1263;98416;-84
2023/08/29 06:57:33;;;;;;;10.40;4.60;;;;;;;19.28;100.00;99467.78;106509;1257;101420;-86
2023/08/29 07:00:22;;;;;;;6.20;3.70;;;;;;;19.33;100.00;99468.29;106577;1261;100421;-82
2023/08/29 07:03:08;;;;;;;6.70;3.60;;;;;;;19.38;100.00;99486.87;106068;1261;108164;-81
2023/08/29 07:05:53;;;;;;;6.80;3.70;;;;;;;19.40;100.00;99493.62;106280;1258;97919;-81
2023/08/29 07:08:39;;;;;;;5.00;3.60;;;;;;;19.43;100.00;99501.98;106209;1263;98419;-82
2023/08/29 07:11:25;;;;;;;3.80;3.30;;;;;;;19.49;100.00;99513.73;105993;1258;102613;-82
2023/08/29 07:14:11;;;;;;;6.50;3.90;;;;;;;19.53;100.00;99509.82;106211;1263;100475;-84
2023/08/29 07:16:56;;;;;;;4.50;4.10;;;;;;;19.58;100.00;99506.12;106111;1261;98032;-85
2023/08/29 07:19:42;;;;;;;3.70;3.40;;;;;;;19.64;100.00;99508.94;106047;1261;97761;-83
2023/08/29 07:22:27;;;;;;;4.90;3.20;;;;;;;19.69;100.00;99512.20;106265;1258;100631;-83
2023/08/29 07:25:13;;;;;;;6.30;3.20;;;;;;;19.74;100.00;99511.55;106230;1261;103078;-82
2023/08/29 07:27:59;;;;;;;4.50;3.60;;;;;;;19.80;100.00;99518.13;106292;1258;100346;-86
2023/08/29 07:30:51;;;;;;;5.60;3.30;;;;;;;19.85;100.00;99522.96;106003;1258;98067;-86
2023/08/29 07:33:36;;;;;;;5.60;3.10;;;;;;;19.93;100.00;99529.41;106154;1259;97972;-83
2023/08/29 07:36:22;;;;;;;5.20;3.60;;;;;;;19.99;100.00;99536.80;106162;1257;98481;-85
2023/08/29 07:39:07;;;;;;;4.70;3.10;;;;;;;20.05;100.00;99542.78;105843;1261;101443;-79
2023/08/29 07:41:53;;;;;;;10.10;3.60;;;;;;;20.14;100.00;99542.55;105334;1258;100214;-78
2023/08/29 07:44:39;;;;;;;5.20;3.50;;;;;;;20.24;100.00;99540.98;105263;1264;99048;-77
2023/08/29 07:47:25;;;;;;;5.20;3.10;;;;;;;20.33;100.00;99535.25;105083;1261;98065;-77
2023/08/29 07:50:11;;;;;;;8.90;3.00;;;;;;;20.41;100.00;99527.73;105055;1258;98502;-78
2023/08/29 07:52:57;;;;;;;3.30;2.90;;;;;;;20.47;100.00;99525.26;105011;1263;102171;-77
2023/08/29 07:55:42;;;;;;;3.00;2.50;;;;;;;20.52;100.00;99526.16;105076;1261;100088;-77
2023/08/29 07:58:29;;;;;;;6.50;3.00;;;;;;;20.57;100.00;99532.23;105078;1261;97995;-78
2023/08/29 08:01:14;;;;;;;5.70;3.30;;;;;;;20.63;100.00;99526.30;105020;1259;97929;-77
2023/08/29 08:04:00;;;;;;;4.30;3.00;;;;;;;20.68;100.00;99524.73;105122;1261;98420;-78
2023/08/29 08:06:45;;;;;;;4.40;2.80;;;;;;;20.72;100.00;99522.16;105221;1261;101402;-78
2023/08/29 08:09:31;;;;;;;5.40;3.10;;;;;;;20.78;100.00;99519.86;105371;1258;99684;-79
2023/08/29 08:12:16;;;;;;;7.80;3.40;;;;;;;20.88;100.00;99516.77;105376;1258;97962;-79
2023/08/29 08:15:04;;;;;;;3.70;3.30;;;;;;;20.97;100.00;99523.85;105132;1258;97882;-78
2023/08/29 08:17:50;;;;;;;4.80;3.00;;;;;;;21.04;100.00;99537.66;105169;1258;98515;-78
2023/08/29 08:20:36;;;;;;;5.80;3.50;;;;;;;21.11;100.00;99543.90;105008;1262;101384;-78
2023/08/29 08:23:21;;;;;;;5.50;3.20;;;;;;;21.21;100.00;99534.25;104997;1263;100090;-78
2023/08/29 08:26:06;;;;;;;5.10;3.60;;;;;;;21.31;100.00;99529.05;105148;1273;98035;-77
2023/08/29 08:28:53;;;;;;;7.10;4.40;;;;;;;21.41;100.00;99525.29;105061;1263;97990;-78
2023/08/29 08:31:39;;;;;;;6.90;3.60;;;;;;;21.54;100.00;99523.46;105111;1257;98445;-78
2023/08/29 08:34:25;;;;;;;5.80;4.30;;;;;;;21.63;100.00;99513.96;105139;1259;102707;-78
2023/08/29 08:37:10;;;;;;;10.80;5.50;;;;;;;21.68;100.00;99508.95;105327;1257;99543;-79
2023/08/29 08:39:56;;;;;;;8.00;4.80;;;;;;;21.73;100.00;99508.48;105515;1257;97891;-79
2023/08/29 08:42:44;;;;;;;8.40;4.60;;;;;;;21.83;100.00;99509.83;105084;1261;98011;-79
2023/08/29 08:45:29;;;;;;;9.60;6.00;;;;;;;21.93;100.00;99517.11;105305;1258;98615;-78
2023/08/29 08:48:15;;;;;;;9.90;5.60;;;;;;;22.01;100.00;99527.87;105297;1261;102757;-78
2023/08/29 08:51:04;;;;;;;12.30;6.90;;;;;;;22.08;100.00;99525.14;105062;1259;100427;-78
2023/08/29 08:53:52;;;;;;;7.00;5.10;;;;;;;22.15;100.00;99518.90;105261;1264;98904;-78
2023/08/29 08:56:38;;;;;;;7.20;5.20;;;;;;;22.26;100.00;99517.86;105144;1261;97965;-76
2023/08/29 08:59:27;;;;;;;12.10;7.10;;;;;;;22.38;100.00;99529.08;105246;1258;99705;-79
2023/08/29 09:02:14;;;;;;;11.50;7.60;;;;;;;22.45;100.00;99536.27;105431;1263;102610;-79
2023/08/29 09:04:59;;;;;;;8.70;6.30;;;;;;;22.51;100.00;99534.99;105748;1258;99157;-79
2023/08/29 09:07:44;;;;;;;10.00;6.50;;;;;;;22.57;100.00;99530.67;105373;1261;99161;-77
2023/08/29 09:10:37;;;;;;;8.70;5.90;;;;;;;22.63;100.00;99536.48;105367;1262;97972;-79
2023/08/29 09:13:23;;;;;;;9.60;6.60;;;;;;;22.67;100.00;99537.68;105440;1258;97965;-79
2023/08/29 09:16:08;;;;;;;10.80;6.80;;;;;;;22.72;100.00;99539.85;105368;1258;101326;-79
2023/08/29 09:18:55;;;;;;;15.30;7.30;;;;;;;22.76;100.00;99539.85;105292;1261;100348;-77
2023/08/29 09:21:44;;;;;;;10.60;7.20;;;;;;;22.82;100.00;99540.83;105442;1257;99086;-78
2023/08/29 09:24:34;;;;;;;10.30;6.40;;;;;;;22.89;100.00;99544.71;105480;1261;98562;-77
2023/08/29 09:27:20;;;;;;;11.70;6.70;;;;;;;22.97;100.00;99553.95;106231;1258;98539;-84
2023/08/29 09:30:10;;;;;;;15.20;7.30;;;;;;;23.01;100.00;99559.48;106015;1258;101388;-83
2023/08/29 09:33:06;;;;;;;11.70;6.90;;;;;;;23.04;100.00;99559.81;106239;1257;99818;-84
2023/08/29 09:35:51;;;;;;;11.20;6.90;;;;;;;23.08;100.00;99557.48;107088;1258;99074;-85
2023/08/29 09:38:38;;;;;;;7.70;6.00;;;;;;;23.12;100.00;99552.66;106887;1265;97870;-85
2023/08/29 09:41:23;;;;;;;9.70;6.70;;;;;;;23.17;100.00;99550.80;106245;1258;98507;-84
2023/08/29 09:44:12;;;;;;;11.80;7.10;;;;;;;23.19;100.00;99559.18;106338;1258;102217;-90
2023/08/29 09:46:58;;;;;;;8.20;6.20;;;;;;;23.20;100.00;99565.95;105634;1263;107722;-83
2023/08/29 09:49:48;;;;;;;13.30;8.30;;;;;;;23.22;100.00;99568.50;106102;1258;98481;-83
2023/08/29 09:52:34;;;;;;;11.20;8.80;;;;;;;23.24;100.00;99568.50;106273;1258;98678;-88
2023/08/29 09:55:23;;;;;;;14.80;10.40;;;;;;;23.27;100.00;99565.14;105850;1259;98484;-81
2023/08/29 09:58:10;;;;;;;12.20;9.60;;;;;;;23.31;100.00;99559.61;106653;1258;102062;-83
2023/08/29 10:00:59;;;;;;;13.20;9.30;;;;;;;23.38;100.00;99557.84;105831;1258;99267;-86
2023/08/29 10:03:47;;;;;;;12.50;8.80;;;;;;;23.45;100.00;99560.96;106105;1261;97891;-85
2023/08/29 10:06:35;;;;;;;12.30;9.00;;;;;;;23.50;99.88;99558.11;105877;1262;98359;-83
2023/08/29 10:09:21;;;;;;;11.70;9.00;;;;;;;23.53;99.91;99544.05;105875;1258;98144;-84
2023/08/29 10:12:08;;;;;;;11.00;8.80;;;;;;;23.60;100.00;99534.39;105874;1258;102185;-82
2023/08/29 10:14:54;;;;;;;15.20;9.70;;;;;;;23.65;99.66;99544.52;105756;1258;99170;-82
2023/08/29 10:17:41;;;;;;;12.10;8.60;;;;;;;23.69;99.27;99551.39;105052;1258;98020;-77
2023/08/29 10:20:28;;;;;;;12.60;9.10;;;;;;;23.75;98.92;99552.72;106084;1258;98052;-85
2023/08/29 10:23:15;;;;;;;15.50;9.50;;;;;;;23.77;97.84;99554.83;105910;1258;98523;-84
2023/08/29 10:26:02;;;;;;;9.70;8.70;;;;;;;23.77;96.98;99548.97;105995;1264;101425;-82
2023/08/29 10:28:49;;;;;;;12.00;9.10;;;;;;;23.76;96.39;99542.80;106024;1264;100794;-81
2023/08/29 10:31:36;;;;;;;9.90;8.30;;;;;;;23.82;97.64;99546.01;106004;1261;99076;-82
2023/08/29 10:34:24;;;;;;;12.30;8.10;;;;;;;23.87;97.37;99547.39;106197;1263;97965;-79
2023/08/29 10:37:17;;;;;;;13.20;9.50;;;;;;;23.92;97.02;99538.77;106133;1263;97853;-84
2023/08/29 10:40:13;;;;;;;12.60;8.60;;;;;;;23.98;96.63;99528.50;105917;1260;102701;-85
2023/08/29 10:43:00;;;;;;;15.50;9.60;;;;;;;24.09;97.19;99522.23;105825;1260;99143;-85
2023/08/29 10:45:56;;;;;;;11.50;9.20;;;;;;;24.21;97.42;99513.34;105846;1258;99165;-80
2023/08/29 10:48:42;;;;;;;13.70;9.70;;;;;;;24.31;96.92;99506.23;106240;1258;98621;-81
2023/08/29 10:51:28;;;;;;;13.20;8.80;;;;;;;24.32;96.46;99506.06;106209;1259;97981;-80
2023/08/29 10:54:13;;;;;;;12.70;8.50;;;;;;;24.32;96.73;99512.19;106386;1262;102100;-82
2023/08/29 10:57:00;;;;;;;17.50;10.10;;;;;;;24.42;96.74;99520.80;106371;1262;99870;-82
2023/08/29 10:59:45;;;;;;;10.30;8.50;;;;;;;24.48;96.07;99517.13;106394;1261;97968;-81
2023/08/29 11:02:31;;;;;;;11.20;9.10;;;;;;;24.53;95.22;99522.02;106431;1263;98029;-81
2023/08/29 11:05:19;;;;;;;11.70;8.80;;;;;;;24.54;94.83;99527.63;106401;1259;98486;-82
2023/08/29 11:08:21;;;;;;;10.30;8.50;;;;;;;24.62;95.35;99521.34;106283;1260;102598;-82
2023/08/29 11:11:09;;;;;;;12.50;8.20;;;;;;;24.72;95.49;99516.98;106482;1263;99157;-81
2023/08/29 11:14:06;;;;;;;10.20;8.10;;;;;;;24.82;95.90;99506.00;106405;1258;97777;-80
2023/08/29 11:17:12;;;;;;;10.50;8.30;;;;;;;24.91;96.30;99501.48;106416;1261;97660;-82
2023/08/29 11:20:01;;;;;;;10.60;8.40;;;;;;;25.01;95.81;99506.13;106462;1261;98404;-81
2023/08/29 11:22:48;;;;;;;15.50;10.20;;;;;;;25.13;95.17;99517.81;106570;1263;102156;-82
2023/08/29 11:25:37;;;;;;;11.70;9.40;;;;;;;25.22;94.37;99526.77;106373;1260;99103;-82
2023/08/29 11:28:23;;;;;;;11.30;8.40;;;;;;;25.27;94.19;99530.96;106406;1261;97970;-81
2023/08/29 11:31:09;;;;;;;13.00;8.60;;;;;;;25.31;94.63;99537.42;106582;1260;98118;-82
2023/08/29 11:33:54;;;;;;;11.10;8.10;;;;;;;25.34;94.81;99542.06;106253;1261;97894;-82
2023/08/29 11:36:40;;;;;;;11.10;8.50;;;;;;;25.34;93.48;99543.33;106423;1257;101321;-82
2023/08/29 11:39:25;;;;;;;9.90;8.30;;;;;;;25.30;92.87;99542.65;106264;1258;99163;-82
2023/08/29 11:42:11;;;;;;;9.90;8.40;;;;;;;25.28;93.34;99551.52;106417;1260;98962;-81
2023/08/29 11:44:56;;;;;;;11.00;8.50;;;;;;;25.28;93.55;99563.42;106314;1263;97957;-82
2023/08/29 11:47:42;;;;;;;10.50;9.10;;;;;;;25.27;93.15;99572.27;106458;1262;97909;-81
2023/08/29 11:50:27;;;;;;;13.10;9.70;;;;;;;25.23;93.23;99573.34;106442;1263;103190;-81
2023/08/29 11:53:26;;;;;;;10.90;9.30;;;;;;;25.17;92.75;99571.55;106467;1261;100873;-83
2023/08/29 11:56:11;;;;;;;13.20;9.70;;;;;;;25.10;92.98;99568.31;106322;1260;98676;-81
2023/08/29 11:59:00;;;;;;;11.90;9.20;;;;;;;25.08;93.26;99562.42;106309;1265;97835;-82
2023/08/29 12:01:46;;;;;;;14.20;8.90;;;;;;;25.07;93.20;99561.58;106501;1257;98061;-81
2023/08/29 12:04:32;;;;;;;12.00;9.00;;;;;;;25.07;93.56;99565.09;106405;1259;101339;-82
2023/08/29 12:07:18;;;;;;;13.70;9.90;;;;;;;25.05;93.21;99569.84;106490;1258;100324;-81
2023/08/29 12:10:09;;;;;;;11.20;9.00;;;;;;;25.02;92.95;99568.48;106454;1257;98078;-81
2023/08/29 12:12:55;;;;;;;14.40;9.30;;;;;;;24.98;93.16;99575.86;106340;1263;97898;-82
2023/08/29 12:15:41;;;;;;;13.30;8.60;;;;;;;24.92;92.90;99578.27;106351;1260;97987;-82
2023/08/29 12:18:27;;;;;;;11.00;8.30;;;;;;;24.89;93.02;99585.13;106350;1258;102009;-81
2023/08/29 12:21:17;;;;;;;12.80;8.30;;;;;;;24.83;92.54;99585.73;106484;1264;100137;-81
2023/08/29 12:24:10;;;;;;;13.00;8.90;;;;;;;24.72;92.05;99589.95;106200;1266;99071;-81
2023/08/29 12:26:56;;;;;;;12.10;8.00;;;;;;;24.63;92.27;99598.44;106377;1264;98118;-82
2023/08/29 12:29:41;;;;;;;9.50;7.90;;;;;;;24.55;92.23;99592.25;106498;1257;97967;-83
2023/08/29 12:32:28;;;;;;;12.20;8.80;;;;;;;24.44;92.05;99590.10;106071;1263;101385;-84
2023/08/29 12:35:17;;;;;;;12.60;8.30;;;;;;;24.32;91.77;99590.86;106043;1260;100633;-85
2023/08/29 12:38:02;;;;;;;10.40;8.30;;;;;;;24.22;92.68;99586.88;105747;1263;99540;-83
2023/08/29 12:40:48;;;;;;;12.10;9.20;;;;;;;24.20;93.36;99590.30;105800;1263;97860;-83
2023/08/29 12:43:34;;;;;;;13.10;9.30;;;;;;;24.20;93.29;99598.39;105792;1257;98550;-84